Forside
METAR-TAF:

METAR-TAF

Lufthavne :

Jönköping Airport

Jönköping, Sverige

Breddekreds: 57-46N, længdekreds: 014-05E, højde: 226 m

Aktuelle vejr

Denne rapport blev lavet for 25 minutter siden, kl. 19:50 UTC
Vind 17 kt fra vestsydvest
Temperatur 2°C
Fugtighed 87%
Tryk 990 hPa
Sigt 10 km eller mere

METAR: ESGJ 221950Z AUTO 25017KT 9999 FEW028/// 02/M00 Q0990

Tid: 21:15 (20:15 UTC)

Vejrudsigter

Denne rapport blev lavet for 26 timer og 45 minutter siden, kl. 17:30 UTC
Foreløbig gælder fra 21 på 18 UTC til 21 på 21 UTC
Vind 15 kt fra sydvest med vindstød på up til 27 kt
Sigt 10 km eller mere
Spredte skyer i en højde af 1000 ft
Brudte skyer i en højde af 2000 ft
let regn
ændring
fra 21 på 18 UTC til 21 på 20 UTC
Brudte skyer i en højde af 800 ft
regn
Midlertidig
fra 21 på 20 UTC til 21 på 21 UTC
Sigt: 4000 m
Brudte skyer i en højde af 1200 ft
let regn, finregn

TAF: ESGJ 211730Z 2118/2121 22015G27KT 9999 -RA SCT010 BKN020 BECMG 2118/2120 RA BKN008 TEMPO 2120/2121 4000 -RADZ BKN012

Vejrobservationer og prognoser fra mere end 4000 lufthavne (METAR og TAF).

De gule og røde prikker repræsenterer de meteorologiske stationer.

Flyt musen over at se navnet på stationen.

Så klik over at se vejr observationer og prognoser.

At skifte det kort: Klik på de grønne knapper med et sort kors for at zoome ind; på den grønne knap med en bindestreg for at zoome ud; eller på de grønne pile for tilstødende kort.


METAR-TAF: